Time;durP1;ratioP1;P1;durP2;ratioP2;P2;SDS_P1;SDS_P2;PMS_P1;PMS_P2;Temp;Humidity;BMP_temperature;BMP_pressure;BME280_temperature;BME280_humidity;BME280_pressure;Samples;Min_cycle;Max_cycle;Signal;HPM_P1;HPM_P2
2023/09/29 00:02:22;;;;;;;8.57;5.13;;;;;;;;;;4997276;28;20247;-66
2023/09/29 00:04:47;;;;;;;13.13;5.10;;;;;;;;;;4997055;28;20111;-66
2023/09/29 00:07:12;;;;;;;11.60;5.17;;;;;;;;;;4996885;28;20033;-66
2023/09/29 00:09:38;;;;;;;14.05;5.13;;;;;;;;;;4997042;28;20088;-66
2023/09/29 00:12:03;;;;;;;9.23;4.87;;;;;;;;;;4996915;28;20122;-67
2023/09/29 00:14:28;;;;;;;11.50;4.93;;;;;;;;;;4996410;28;20034;-67
2023/09/29 00:16:53;;;;;;;14.50;5.13;;;;;;;;;;4996814;28;20275;-66
2023/09/29 00:19:18;;;;;;;9.00;4.77;;;;;;;;;;4996815;28;20054;-66
2023/09/29 00:21:44;;;;;;;9.27;5.07;;;;;;;;;;4996516;28;20061;-67
2023/09/29 00:24:09;;;;;;;13.03;5.33;;;;;;;;;;4996433;28;20047;-66
2023/09/29 00:26:34;;;;;;;8.33;4.80;;;;;;;;;;4996504;28;20693;-66
2023/09/29 00:29:00;;;;;;;14.38;5.10;;;;;;;;;;4996874;28;20676;-66
2023/09/29 00:31:26;;;;;;;10.40;5.55;;;;;;;;;;4996588;28;20026;-66
2023/09/29 00:33:51;;;;;;;8.95;5.63;;;;;;;;;;4996002;28;20022;-66
2023/09/29 00:36:16;;;;;;;8.37;5.50;;;;;;;;;;4996717;28;20101;-66
2023/09/29 00:38:41;;;;;;;14.23;6.50;;;;;;;;;;4996368;28;20022;-66
2023/09/29 00:41:07;;;;;;;12.37;6.10;;;;;;;;;;4996208;28;20029;-67
2023/09/29 00:43:35;;;;;;;13.00;5.72;;;;;;;;;;4996326;28;20034;-66
2023/09/29 00:46:01;;;;;;;7.45;4.93;;;;;;;;;;4995009;28;20473;-66
2023/09/29 00:48:29;;;;;;;8.70;5.13;;;;;;;;;;4996092;28;20030;-66
2023/09/29 00:50:55;;;;;;;10.48;6.07;;;;;;;;;;4996540;28;20405;-66
2023/09/29 00:53:20;;;;;;;7.57;5.15;;;;;;;;;;4995712;28;20101;-67
2023/09/29 00:55:46;;;;;;;9.47;5.47;;;;;;;;;;4996097;28;20022;-66
2023/09/29 00:58:12;;;;;;;9.10;4.90;;;;;;;;;;4996340;28;20248;-66
2023/09/29 01:00:40;;;;;;;13.35;5.82;;;;;;;;;;4995840;28;20485;-67
2023/09/29 01:03:06;;;;;;;8.93;5.10;;;;;;;;;;4996148;28;20113;-66
2023/09/29 01:05:42;;;;;;;8.88;4.85;;;;;;;;;;4996117;28;20528;-67
2023/09/29 01:08:09;;;;;;;9.57;4.93;;;;;;;;;;4995843;28;20133;-66
2023/09/29 01:10:37;;;;;;;9.07;5.18;;;;;;;;;;4995684;28;20038;-67
2023/09/29 01:13:03;;;;;;;10.77;5.78;;;;;;;;;;4995485;28;20474;-66
2023/09/29 01:15:28;;;;;;;9.43;5.15;;;;;;;;;;4995638;28;20084;-66
2023/09/29 01:17:54;;;;;;;8.25;5.53;;;;;;;;;;4995702;28;20053;-68
2023/09/29 01:20:31;;;;;;;9.45;4.80;;;;;;;;;;4995664;28;20014;-68
2023/09/29 01:23:00;;;;;;;10.15;5.00;;;;;;;;;;4995113;28;20050;-68
2023/09/29 01:25:25;;;;;;;8.45;4.95;;;;;;;;;;4995593;28;20117;-68
2023/09/29 01:27:52;;;;;;;10.05;4.68;;;;;;;;;;4995349;28;20486;-68
2023/09/29 01:30:18;;;;;;;9.80;4.85;;;;;;;;;;4995596;28;20029;-67
2023/09/29 01:32:46;;;;;;;7.88;5.18;;;;;;;;;;4995406;28;20041;-68
2023/09/29 01:35:11;;;;;;;11.95;4.60;;;;;;;;;;4995447;28;20025;-68
2023/09/29 01:37:38;;;;;;;9.85;4.97;;;;;;;;;;4995356;28;20377;-68
2023/09/29 01:40:05;;;;;;;12.30;5.22;;;;;;;;;;4995615;28;20474;-68
2023/09/29 01:42:30;;;;;;;10.15;4.43;;;;;;;;;;4995388;28;20062;-68
2023/09/29 01:44:55;;;;;;;9.32;4.93;;;;;;;;;;4995337;28;20061;-68
2023/09/29 01:47:21;;;;;;;6.93;4.53;;;;;;;;;;4995215;28;20080;-68
2023/09/29 01:49:48;;;;;;;9.68;5.18;;;;;;;;;;4993867;28;20850;-68
2023/09/29 01:52:14;;;;;;;11.20;6.07;;;;;;;;;;4994952;28;20036;-68
2023/09/29 01:54:39;;;;;;;8.38;5.05;;;;;;;;;;4994958;28;20109;-68
2023/09/29 01:57:04;;;;;;;8.18;4.70;;;;;;;;;;4994596;28;20491;-68
2023/09/29 01:59:30;;;;;;;9.47;5.37;;;;;;;;;;4994724;28;20045;-68
2023/09/29 02:01:56;;;;;;;10.07;5.10;;;;;;;;;;4994770;28;20018;-68
2023/09/29 02:04:21;;;;;;;12.98;4.72;;;;;;;;;;4993637;28;20092;-68
2023/09/29 02:06:49;;;;;;;19.27;5.40;;;;;;;;;;4994662;28;20027;-68
2023/09/29 02:09:14;;;;;;;11.50;6.07;;;;;;;;;;4994775;28;20021;-68
2023/09/29 02:11:41;;;;;;;9.50;4.97;;;;;;;;;;4994564;28;20477;-68
2023/09/29 02:14:06;;;;;;;9.32;4.72;;;;;;;;;;4994579;28;20045;-68
2023/09/29 02:16:31;;;;;;;8.23;5.47;;;;;;;;;;4994741;28;20027;-68
2023/09/29 02:18:57;;;;;;;9.98;5.18;;;;;;;;;;4994423;28;20097;-68
2023/09/29 02:21:22;;;;;;;9.20;4.97;;;;;;;;;;4994463;28;20158;-68
2023/09/29 02:23:48;;;;;;;8.90;5.70;;;;;;;;;;4994172;28;20280;-68
2023/09/29 02:26:14;;;;;;;13.75;5.82;;;;;;;;;;4994541;28;20018;-68
2023/09/29 02:28:39;;;;;;;10.45;5.30;;;;;;;;;;4994480;28;20080;-68
2023/09/29 02:31:10;;;;;;;12.10;4.63;;;;;;;;;;4994117;28;20092;-68
2023/09/29 02:33:36;;;;;;;9.55;4.80;;;;;;;;;;4994129;28;20386;-68
2023/09/29 02:36:01;;;;;;;13.32;5.43;;;;;;;;;;4994275;28;20026;-68
2023/09/29 02:38:26;;;;;;;12.23;4.97;;;;;;;;;;4994014;28;20030;-68
2023/09/29 02:40:51;;;;;;;7.90;5.00;;;;;;;;;;4994143;28;20069;-68
2023/09/29 02:43:17;;;;;;;7.82;4.03;;;;;;;;;;4993836;28;20030;-68
2023/09/29 02:45:42;;;;;;;8.50;4.90;;;;;;;;;;4994133;28;20093;-68
2023/09/29 02:48:07;;;;;;;8.60;4.73;;;;;;;;;;4994082;28;20018;-68
2023/09/29 02:50:35;;;;;;;9.50;5.00;;;;;;;;;;4994109;28;20096;-68
2023/09/29 02:53:00;;;;;;;10.02;4.90;;;;;;;;;;4993725;28;20035;-68
2023/09/29 02:55:26;;;;;;;8.45;4.63;;;;;;;;;;4993774;28;20084;-68
2023/09/29 02:57:51;;;;;;;9.25;4.88;;;;;;;;;;4994161;28;20027;-68
2023/09/29 03:00:19;;;;;;;9.43;4.87;;;;;;;;;;4993747;28;20458;-68
2023/09/29 03:02:44;;;;;;;8.95;4.43;;;;;;;;;;4993265;28;20256;-68
2023/09/29 03:05:10;;;;;;;11.18;5.10;;;;;;;;;;4992533;28;20458;-68
2023/09/29 03:07:35;;;;;;;14.05;5.22;;;;;;;;;;4992707;28;20022;-68
2023/09/29 03:10:01;;;;;;;13.40;4.57;;;;;;;;;;4993664;28;20522;-68
2023/09/29 03:12:26;;;;;;;12.23;4.97;;;;;;;;;;4993797;28;20470;-68
2023/09/29 03:14:52;;;;;;;12.65;4.93;;;;;;;;;;4993629;28;20026;-68
2023/09/29 03:17:17;;;;;;;7.33;4.93;;;;;;;;;;4993644;28;20486;-68
2023/09/29 03:19:43;;;;;;;11.00;5.50;;;;;;;;;;4993640;28;20643;-68
2023/09/29 03:22:11;;;;;;;8.70;4.75;;;;;;;;;;4993780;28;20081;-68
2023/09/29 03:24:37;;;;;;;12.02;4.88;;;;;;;;;;4993230;28;20065;-68
2023/09/29 03:27:03;;;;;;;7.35;4.10;;;;;;;;;;4993426;28;20026;-68
2023/09/29 03:29:28;;;;;;;11.27;4.28;;;;;;;;;;4993396;28;20030;-68
2023/09/29 03:31:54;;;;;;;10.30;5.07;;;;;;;;;;4993627;28;20110;-68
2023/09/29 03:34:20;;;;;;;10.40;4.65;;;;;;;;;;4993684;28;20389;-68
2023/09/29 03:36:45;;;;;;;12.23;5.35;;;;;;;;;;4993515;28;20034;-68
2023/09/29 03:39:10;;;;;;;9.38;4.95;;;;;;;;;;4993480;28;20042;-68
2023/09/29 03:41:36;;;;;;;8.63;4.87;;;;;;;;;;4993494;28;20019;-68
2023/09/29 03:44:01;;;;;;;7.97;4.50;;;;;;;;;;4993524;28;20262;-68
2023/09/29 03:46:29;;;;;;;8.60;4.43;;;;;;;;;;4992943;28;20292;-68
2023/09/29 03:48:54;;;;;;;6.68;4.35;;;;;;;;;;4993414;28;20026;-66
2023/09/29 03:51:23;;;;;;;10.65;4.80;;;;;;;;;;4993481;28;20041;-66
2023/09/29 03:53:49;;;;;;;10.80;4.47;;;;;;;;;;4993590;28;20065;-66
2023/09/29 03:56:14;;;;;;;6.00;4.05;;;;;;;;;;4993293;28;20054;-66
2023/09/29 03:58:40;;;;;;;8.23;4.95;;;;;;;;;;4993542;28;20029;-66
2023/09/29 04:01:05;;;;;;;9.30;4.60;;;;;;;;;;4993129;28;20026;-66
2023/09/29 04:03:31;;;;;;;10.67;5.37;;;;;;;;;;4993258;28;20513;-66
2023/09/29 04:05:56;;;;;;;9.82;4.72;;;;;;;;;;4992921;28;20035;-66
2023/09/29 04:08:22;;;;;;;9.30;4.37;;;;;;;;;;4993278;28;20030;-66
2023/09/29 04:10:47;;;;;;;19.57;5.23;;;;;;;;;;4993184;28;20034;-66
2023/09/29 04:13:12;;;;;;;13.33;4.77;;;;;;;;;;4992929;28;20097;-66
2023/09/29 04:15:37;;;;;;;7.60;4.67;;;;;;;;;;4993003;28;20046;-66
2023/09/29 04:18:03;;;;;;;8.30;4.70;;;;;;;;;;4992939;28;20045;-66
2023/09/29 04:20:28;;;;;;;12.88;4.72;;;;;;;;;;4996931;28;20025;-66
2023/09/29 04:22:54;;;;;;;9.83;4.40;;;;;;;;;;4996530;28;20118;-66
2023/09/29 04:25:19;;;;;;;9.07;4.40;;;;;;;;;;4995067;28;20363;-66
2023/09/29 04:27:44;;;;;;;8.63;4.23;;;;;;;;;;4996693;28;20022;-66
2023/09/29 04:30:12;;;;;;;7.93;4.82;;;;;;;;;;4996091;28;20274;-66
2023/09/29 04:32:37;;;;;;;9.45;4.00;;;;;;;;;;4996687;28;20454;-66
2023/09/29 04:35:04;;;;;;;10.30;4.32;;;;;;;;;;4996597;28;20084;-66
2023/09/29 04:37:30;;;;;;;8.43;4.45;;;;;;;;;;4996542;28;20501;-66
2023/09/29 04:39:56;;;;;;;9.00;4.07;;;;;;;;;;4996076;28;20022;-66
2023/09/29 04:42:21;;;;;;;13.90;4.50;;;;;;;;;;4996743;28;20027;-66
2023/09/29 04:44:46;;;;;;;6.93;4.10;;;;;;;;;;4996811;28;20469;-66
2023/09/29 04:47:11;;;;;;;6.95;4.40;;;;;;;;;;4996929;28;20105;-66
2023/09/29 04:49:37;;;;;;;11.97;4.40;;;;;;;;;;4996714;28;20030;-66
2023/09/29 04:52:03;;;;;;;13.05;4.45;;;;;;;;;;4996513;28;20777;-66
2023/09/29 04:54:28;;;;;;;5.93;4.10;;;;;;;;;;4996406;28;20026;-66
2023/09/29 04:56:53;;;;;;;8.88;3.05;;;;;;;;;;4996542;28;20029;-66
2023/09/29 04:59:19;;;;;;;7.55;3.58;;;;;;;;;;4996439;28;20026;-66
2023/09/29 05:01:44;;;;;;;6.13;3.85;;;;;;;;;;4996720;28;20041;-65
2023/09/29 05:04:09;;;;;;;6.20;3.40;;;;;;;;;;4996639;28;20097;-66
2023/09/29 05:06:35;;;;;;;11.32;4.40;;;;;;;;;;4996228;28;20252;-66
2023/09/29 05:09:00;;;;;;;6.38;3.67;;;;;;;;;;4996634;28;20093;-68
2023/09/29 05:11:27;;;;;;;6.68;3.83;;;;;;;;;;4996492;28;20022;-68
2023/09/29 05:13:53;;;;;;;7.85;4.10;;;;;;;;;;4996046;28;20030;-68
2023/09/29 05:16:18;;;;;;;6.53;4.10;;;;;;;;;;4996096;28;20121;-68
2023/09/29 05:18:44;;;;;;;7.20;3.95;;;;;;;;;;4996153;28;20023;-68
2023/09/29 05:21:10;;;;;;;7.75;4.10;;;;;;;;;;4996289;28;20038;-68
2023/09/29 05:26:41;;;;;;;5.38;3.80;;;;;;;;;;4995106;28;20056;-68
2023/09/29 05:29:06;;;;;;;8.25;4.53;;;;;;;;;;4995801;28;20486;-68
2023/09/29 05:34:34;;;;;;;7.57;4.47;;;;;;;;;;4995482;28;20283;-75
2023/09/29 05:42:37;;;;;;;8.27;4.07;;;;;;;;;;5025329;23;19925;-74
2023/09/29 05:50:06;;;;;;;8.75;4.13;;;;;;;;;;4993380;28;20050;-74
2023/09/29 05:55:34;;;;;;;6.40;4.25;;;;;;;;;;4995691;28;20600;-73
2023/09/29 06:01:12;;;;;;;7.18;4.28;;;;;;;;;;4995068;28;20129;-79
2023/09/29 06:06:40;;;;;;;;;;;;;;;;;;4995282;28;20107;-68
2023/09/29 06:09:06;;;;;;;7.93;3.78;;;;;;;;;;4995148;28;20320;-68
2023/09/29 06:14:34;;;;;;;5.82;3.63;;;;;;;;;;5025606;23;20076;-90
2023/09/29 06:20:04;;;;;;;7.00;4.20;;;;;;;;;;5015934;28;20119;-89
2023/09/29 06:22:29;;;;;;;6.25;3.63;;;;;;;;;;5014431;28;20053;-89
2023/09/29 06:27:57;;;;;;;5.93;3.70;;;;;;;;;;5015408;28;20044;-90
2023/09/29 06:33:25;;;;;;;8.90;3.70;;;;;;;;;;5015277;28;20033;-90
2023/09/29 06:35:51;;;;;;;6.63;3.45;;;;;;;;;;5014312;28;20026;-90
2023/09/29 06:41:20;;;;;;;7.97;4.40;;;;;;;;;;5015175;28;20028;-90
2023/09/29 06:46:48;;;;;;;4.43;3.10;;;;;;;;;;5015132;28;20509;-89
2023/09/29 06:49:13;;;;;;;6.03;3.27;;;;;;;;;;5013899;28;20053;-90
2023/09/29 06:54:41;;;;;;;4.57;3.25;;;;;;;;;;5014789;28;20041;-91
2023/09/29 07:02:39;;;;;;;3.58;2.70;;;;;;;;;;4992713;28;20053;-66
2023/09/29 07:08:07;;;;;;;5.82;3.35;;;;;;;;;;4994383;28;20042;-66
2023/09/29 07:13:34;;;;;;;5.13;2.83;;;;;;;;;;4993980;28;20105;-66
2023/09/29 07:16:01;;;;;;;3.90;2.30;;;;;;;;;;4994026;28;20474;-66
2023/09/29 07:21:28;;;;;;;6.18;3.25;;;;;;;;;;4974850;28;20161;-66
2023/09/29 07:23:56;;;;;;;6.53;3.53;;;;;;;;;;4974493;28;20454;-65
2023/09/29 07:29:24;;;;;;;9.60;3.85;;;;;;;;;;4974714;28;20022;-66
2023/09/29 07:31:49;;;;;;;10.47;4.40;;;;;;;;;;4974405;28;20030;-66
2023/09/29 07:39:46;;;;;;;5.18;3.17;;;;;;;;;;4992454;28;20054;-69
2023/09/29 07:45:13;;;;;;;18.30;5.80;;;;;;;;;;4994131;28;20037;-69
2023/09/29 07:50:41;;;;;;;;;;;;;;;;;;4994239;28;20067;-67
2023/09/29 07:53:06;;;;;;;9.43;4.38;;;;;;;;;;4993784;28;19905;-69
2023/09/29 08:01:03;;;;;;;10.70;3.97;;;;;;;;;;5017592;23;20076;-66
2023/09/29 08:09:00;;;;;;;8.30;4.18;;;;;;;;;;4995921;28;20049;-69
2023/09/29 08:14:28;;;;;;;8.05;4.07;;;;;;;;;;4997273;28;20085;-69
2023/09/29 08:16:53;;;;;;;9.00;4.37;;;;;;;;;;4997255;28;20030;-70
2023/09/29 08:22:21;;;;;;;11.70;4.10;;;;;;;;;;4997369;28;20030;-70
2023/09/29 08:27:48;;;;;;;8.13;4.05;;;;;;;;;;4997130;28;20328;-70
2023/09/29 08:30:14;;;;;;;9.93;4.20;;;;;;;;;;4997160;28;20054;-70
2023/09/29 08:38:26;;;;;;;7.75;4.18;;;;;;;;;;4995263;28;20042;-70
2023/09/29 08:46:23;;;;;;;5.93;3.85;;;;;;;;;;4994856;28;20599;-70
2023/09/29 08:51:52;;;;;;;5.97;3.20;;;;;;;;;;4996584;28;20033;-70
2023/09/29 08:57:23;;;;;;;10.18;3.47;;;;;;;;;;4996755;28;20025;-70
2023/09/29 08:59:49;;;;;;;9.07;3.75;;;;;;;;;;4996674;28;20497;-70
2023/09/29 09:07:46;;;;;;;10.52;3.30;;;;;;;;;;4995071;28;20049;-69
2023/09/29 09:13:20;;;;;;;14.00;3.60;;;;;;;;;;4995828;28;20110;-67
2023/09/29 09:15:54;;;;;;;9.45;3.88;;;;;;;;;;4996474;28;20040;-67
2023/09/29 09:21:40;;;;;;;6.20;2.95;;;;;;;;;;4996343;28;20024;-65
2023/09/29 09:27:13;;;;;;;10.98;3.70;;;;;;;;;;4996084;28;20129;-69
2023/09/29 09:29:39;;;;;;;6.05;3.28;;;;;;;;;;4996235;28;20489;-66
2023/09/29 09:37:36;;;;;;;10.40;3.15;;;;;;;;;;4994383;28;19968;-66
2023/09/29 09:45:37;;;;;;;5.60;2.97;;;;;;;;;;4992533;28;20050;-69
2023/09/29 09:51:07;;;;;;;12.60;3.15;;;;;;;;;;4966816;28;20382;-66
2023/09/29 09:59:41;;;;;;;6.03;3.55;;;;;;;;;;4976241;28;20509;-65
2023/09/29 10:07:48;;;;;;;8.18;3.53;;;;;;;;;;4993085;28;19921;-65
2023/09/29 10:13:16;;;;;;;10.73;3.92;;;;;;;;;;4995240;28;20049;-65
2023/09/29 10:26:47;;;;;;;12.60;3.53;;;;;;;;;;4995146;28;20563;-63
2023/09/29 10:29:19;;;;;;;6.25;3.47;;;;;;;;;;4995087;28;20484;-63
2023/09/29 10:40:32;;;;;;;21.48;3.40;;;;;;;;;;4994945;28;20162;-62
2023/09/29 10:43:01;;;;;;;7.43;2.75;;;;;;;;;;4994647;28;20042;-63
2023/09/29 10:48:29;;;;;;;6.15;3.10;;;;;;;;;;4994873;28;20029;-63
2023/09/29 10:50:55;;;;;;;6.75;3.58;;;;;;;;;;4994616;28;20026;-65
2023/09/29 10:56:49;;;;;;;7.78;3.03;;;;;;;;;;4979068;28;20542;-69
2023/09/29 11:02:17;;;;;;;6.30;2.63;;;;;;;;;;4974638;28;20430;-69
2023/09/29 11:04:45;;;;;;;7.50;2.72;;;;;;;;;;4974737;28;20031;-74
2023/09/29 11:10:13;;;;;;;10.25;3.33;;;;;;;;;;4984816;28;20077;-78
2023/09/29 11:12:40;;;;;;;6.55;2.95;;;;;;;;;;4994118;28;20022;-78
2023/09/29 11:18:08;;;;;;;6.85;2.92;;;;;;;;;;4993350;28;20021;-72
2023/09/29 11:20:33;;;;;;;7.20;3.05;;;;;;;;;;4993504;28;20450;-72
2023/09/29 11:26:06;;;;;;;8.95;3.75;;;;;;;;;;4993950;28;20287;-72
2023/09/29 11:34:03;;;;;;;11.15;4.45;;;;;;;;;;5010614;28;20049;-64
2023/09/29 11:39:30;;;;;;;17.88;5.30;;;;;;;;;;5013335;28;20247;-72
2023/09/29 11:41:57;;;;;;;14.73;5.20;;;;;;;;;;5013303;28;20100;-72
2023/09/29 11:47:25;;;;;;;13.65;4.95;;;;;;;;;;5013675;28;20029;-72
2023/09/29 11:55:28;;;;;;;17.15;5.93;;;;;;;;;;5104861;23;20139;-71
2023/09/29 12:01:21;;;;;;;25.80;5.72;;;;;;;;;;5029336;23;20061;-89
2023/09/29 12:03:47;;;;;;;17.70;5.78;;;;;;;;;;5009811;28;20041;-89
2023/09/29 12:09:15;;;;;;;18.73;7.22;;;;;;;;;;4994595;28;20621;-90
2023/09/29 12:14:43;;;;;;;22.10;6.82;;;;;;;;;;4974912;28;20090;-91
2023/09/29 12:17:08;;;;;;;22.10;7.80;;;;;;;;;;4989957;28;20023;-90
2023/09/29 12:22:38;;;;;;;29.75;7.75;;;;;;;;;;5479722;23;20535;-84
2023/09/29 12:25:04;;;;;;;25.63;8.35;;;;;;;;;;5009877;28;20436;-84
2023/09/29 12:30:32;;;;;;;22.95;7.38;;;;;;;;;;5012910;28;20044;-84
2023/09/29 12:36:08;;;;;;;29.88;9.82;;;;;;;;;;5012801;28;20103;-84
2023/09/29 12:38:33;;;;;;;27.73;8.68;;;;;;;;;;4996097;28;20018;-84
2023/09/29 12:46:32;;;;;;;30.98;9.38;;;;;;;;;;4994704;28;20069;-64
2023/09/29 12:48:58;;;;;;;29.90;9.57;;;;;;;;;;4996240;28;20050;-64
2023/09/29 12:51:24;;;;;;;31.02;11.07;;;;;;;;;;4996225;28;20528;-64
2023/09/29 12:53:49;;;;;;;30.70;10.48;;;;;;;;;;4996075;28;20030;-63
2023/09/29 12:56:15;;;;;;;30.83;10.68;;;;;;;;;;4995988;28;20064;-64
2023/09/29 12:58:40;;;;;;;37.08;11.45;;;;;;;;;;4996115;28;20061;-64
2023/09/29 13:01:06;;;;;;;39.10;11.60;;;;;;;;;;4996083;28;20030;-63
2023/09/29 13:03:31;;;;;;;28.08;9.80;;;;;;;;;;4995980;28;20026;-64
2023/09/29 13:05:58;;;;;;;40.85;10.98;;;;;;;;;;4996074;28;20539;-64
2023/09/29 13:08:23;;;;;;;43.63;13.95;;;;;;;;;;4995691;28;20023;-64
2023/09/29 13:10:48;;;;;;;40.27;12.77;;;;;;;;;;4995803;28;20037;-64
2023/09/29 13:13:13;;;;;;;46.57;15.03;;;;;;;;;;4995769;28;20077;-64
2023/09/29 13:15:38;;;;;;;51.50;16.37;;;;;;;;;;4995656;28;20275;-64
2023/09/29 13:18:05;;;;;;;57.25;17.27;;;;;;;;;;4995744;28;20026;-64
2023/09/29 13:20:30;;;;;;;69.18;19.10;;;;;;;;;;4995266;28;20114;-64
2023/09/29 13:22:56;;;;;;;52.92;17.88;;;;;;;;;;4995672;28;20089;-64
2023/09/29 13:25:21;;;;;;;55.53;17.52;;;;;;;;;;4995803;28;20019;-64
2023/09/29 13:27:46;;;;;;;53.22;17.70;;;;;;;;;;4995853;28;20580;-64
2023/09/29 13:30:13;;;;;;;54.93;17.60;;;;;;;;;;4995571;28;20022;-64
2023/09/29 13:32:40;;;;;;;59.42;17.83;;;;;;;;;;4995655;28;20030;-64
2023/09/29 13:35:05;;;;;;;57.72;18.15;;;;;;;;;;4995659;28;20539;-64
2023/09/29 13:37:30;;;;;;;53.22;16.80;;;;;;;;;;4995752;28;20030;-64
2023/09/29 13:39:56;;;;;;;55.03;17.67;;;;;;;;;;4995079;28;20524;-64
2023/09/29 13:42:22;;;;;;;46.20;16.15;;;;;;;;;;4995285;28;20047;-64
2023/09/29 13:44:47;;;;;;;46.60;14.23;;;;;;;;;;4995116;28;20130;-63
2023/09/29 13:47:12;;;;;;;46.07;15.27;;;;;;;;;;4995269;28;20291;-64
2023/09/29 13:49:38;;;;;;;52.50;15.47;;;;;;;;;;4995133;28;20270;-64
2023/09/29 13:52:04;;;;;;;36.83;12.25;;;;;;;;;;4994428;28;20053;-64
2023/09/29 13:54:30;;;;;;;35.92;11.85;;;;;;;;;;4994958;28;20466;-64
2023/09/29 13:56:55;;;;;;;31.67;10.03;;;;;;;;;;4992435;28;20019;-75
2023/09/29 13:59:21;;;;;;;30.75;10.55;;;;;;;;;;4993588;28;20695;-76
2023/09/29 14:01:46;;;;;;;32.23;10.07;;;;;;;;;;4994876;28;20026;-76
2023/09/29 14:04:11;;;;;;;33.50;9.37;;;;;;;;;;4994611;28;20821;-76
2023/09/29 14:06:36;;;;;;;25.47;8.00;;;;;;;;;;4994895;28;20069;-75
2023/09/29 14:09:02;;;;;;;29.33;8.30;;;;;;;;;;4994674;28;20030;-75
2023/09/29 14:11:27;;;;;;;28.75;7.47;;;;;;;;;;4995021;28;20092;-74
2023/09/29 14:13:52;;;;;;;25.63;7.33;;;;;;;;;;4994711;28;20034;-75
2023/09/29 14:16:18;;;;;;;24.33;6.63;;;;;;;;;;4994689;28;20313;-73
2023/09/29 14:18:43;;;;;;;22.77;6.28;;;;;;;;;;4994745;28;20029;-74
2023/09/29 14:21:09;;;;;;;23.75;6.10;;;;;;;;;;4994495;28;20363;-74
2023/09/29 14:23:34;;;;;;;25.50;5.50;;;;;;;;;;4994642;28;20022;-74
2023/09/29 14:26:01;;;;;;;24.70;6.50;;;;;;;;;;4994594;28;20267;-73
2023/09/29 14:28:28;;;;;;;18.55;5.78;;;;;;;;;;4993649;28;20445;-73
2023/09/29 14:30:53;;;;;;;16.25;5.82;;;;;;;;;;4994371;28;20398;-73
2023/09/29 14:33:18;;;;;;;19.23;5.50;;;;;;;;;;4994658;28;20023;-73
2023/09/29 14:35:43;;;;;;;17.63;4.63;;;;;;;;;;4994467;28;20802;-74
2023/09/29 14:38:09;;;;;;;19.63;4.63;;;;;;;;;;4994363;28;20613;-73
2023/09/29 14:40:36;;;;;;;14.18;4.53;;;;;;;;;;4993239;28;20323;-71
2023/09/29 14:43:01;;;;;;;21.00;5.47;;;;;;;;;;4994804;28;20366;-73
2023/09/29 14:45:26;;;;;;;20.75;4.78;;;;;;;;;;4994396;28;20263;-72
2023/09/29 14:47:52;;;;;;;24.90;4.93;;;;;;;;;;4994534;28;20440;-73
2023/09/29 14:50:17;;;;;;;21.25;5.65;;;;;;;;;;4992949;28;20072;-72
2023/09/29 14:52:43;;;;;;;19.08;4.65;;;;;;;;;;4992983;28;20023;-74
2023/09/29 14:55:10;;;;;;;17.23;5.00;;;;;;;;;;4992667;28;20068;-73
2023/09/29 14:57:38;;;;;;;21.15;5.70;;;;;;;;;;4992891;28;20025;-73
2023/09/29 15:00:04;;;;;;;19.23;4.95;;;;;;;;;;4994143;28;20014;-73
2023/09/29 15:02:30;;;;;;;20.90;6.00;;;;;;;;;;4993717;28;20014;-76
2023/09/29 15:04:56;;;;;;;18.35;5.18;;;;;;;;;;4993907;28;20397;-76
2023/09/29 15:07:21;;;;;;;19.60;5.40;;;;;;;;;;4992377;28;20022;-76
2023/09/29 15:09:46;;;;;;;16.37;4.97;;;;;;;;;;4993921;28;20753;-74
2023/09/29 15:12:12;;;;;;;12.63;4.05;;;;;;;;;;4993852;28;20664;-73
2023/09/29 15:14:37;;;;;;;17.52;4.15;;;;;;;;;;4993627;28;20490;-74
2023/09/29 15:17:02;;;;;;;10.32;2.92;;;;;;;;;;4993854;28;20026;-74
2023/09/29 15:19:28;;;;;;;11.33;3.00;;;;;;;;;;4994112;28;20022;-74
2023/09/29 15:21:53;;;;;;;17.83;3.30;;;;;;;;;;4994003;28;20244;-74
2023/09/29 15:24:18;;;;;;;17.98;3.70;;;;;;;;;;4994273;28;20025;-74
2023/09/29 15:26:43;;;;;;;10.50;2.80;;;;;;;;;;4993634;28;20022;-73
2023/09/29 15:29:10;;;;;;;14.43;3.17;;;;;;;;;;4994038;28;20623;-73
2023/09/29 15:31:36;;;;;;;14.23;3.15;;;;;;;;;;4994028;28;20022;-74
2023/09/29 15:34:02;;;;;;;10.63;2.80;;;;;;;;;;4993842;28;20022;-74
2023/09/29 15:36:31;;;;;;;12.80;2.85;;;;;;;;;;4993908;28;20026;-74
2023/09/29 15:38:56;;;;;;;8.50;1.95;;;;;;;;;;4993469;28;20026;-74
2023/09/29 15:41:21;;;;;;;11.48;3.22;;;;;;;;;;4993627;28;20044;-74
2023/09/29 15:43:47;;;;;;;9.93;2.65;;;;;;;;;;4993420;28;20045;-74
2023/09/29 15:46:12;;;;;;;12.60;2.37;;;;;;;;;;4992903;28;20073;-75
2023/09/29 15:48:38;;;;;;;10.00;2.15;;;;;;;;;;4993450;28;20045;-74
2023/09/29 15:51:07;;;;;;;8.30;2.15;;;;;;;;;;4993408;28;20037;-74
2023/09/29 15:53:33;;;;;;;10.07;2.50;;;;;;;;;;4993167;28;20405;-74
2023/09/29 15:55:58;;;;;;;7.32;2.35;;;;;;;;;;4993398;28;20018;-74
2023/09/29 15:58:23;;;;;;;9.63;2.60;;;;;;;;;;4992012;28;20018;-74
2023/09/29 16:00:49;;;;;;;10.20;2.60;;;;;;;;;;4991943;28;20026;-74
2023/09/29 16:03:14;;;;;;;16.13;2.13;;;;;;;;;;4993297;28;20489;-74
2023/09/29 16:05:39;;;;;;;8.77;2.50;;;;;;;;;;4993174;28;20025;-74
2023/09/29 16:08:04;;;;;;;7.93;2.00;;;;;;;;;;4993118;28;20026;-74
2023/09/29 16:10:30;;;;;;;8.20;2.20;;;;;;;;;;4993221;28;20033;-73
2023/09/29 16:12:55;;;;;;;9.30;2.57;;;;;;;;;;4993020;28;20018;-74
2023/09/29 16:15:20;;;;;;;9.50;2.40;;;;;;;;;;4995147;28;20759;-73
2023/09/29 16:17:46;;;;;;;8.23;2.70;;;;;;;;;;4996811;28;20023;-74
2023/09/29 16:20:11;;;;;;;11.83;2.70;;;;;;;;;;4996817;28;20391;-73
2023/09/29 16:22:36;;;;;;;13.45;2.55;;;;;;;;;;4996812;28;20346;-74
2023/09/29 16:25:04;;;;;;;11.70;2.55;;;;;;;;;;4996697;28;20037;-75
2023/09/29 16:27:29;;;;;;;9.40;2.20;;;;;;;;;;4990181;28;20026;-74
2023/09/29 16:29:54;;;;;;;12.93;2.35;;;;;;;;;;4996785;28;20022;-75
2023/09/29 16:32:19;;;;;;;9.82;2.30;;;;;;;;;;4995293;28;20026;-74
2023/09/29 16:34:45;;;;;;;15.27;2.57;;;;;;;;;;4996637;28;20057;-74
2023/09/29 16:37:10;;;;;;;8.32;2.03;;;;;;;;;;4995217;28;20046;-74
2023/09/29 16:39:35;;;;;;;12.53;2.60;;;;;;;;;;4996376;28;20030;-74
2023/09/29 16:42:01;;;;;;;15.20;2.67;;;;;;;;;;4996545;28;20066;-74
2023/09/29 16:44:26;;;;;;;8.57;1.90;;;;;;;;;;4996057;28;20030;-74
2023/09/29 16:46:52;;;;;;;8.75;2.20;;;;;;;;;;4996421;28;20117;-74
2023/09/29 16:49:20;;;;;;;14.43;3.07;;;;;;;;;;4996352;28;20030;-75
2023/09/29 16:51:49;;;;;;;10.93;2.67;;;;;;;;;;4996426;28;20030;-74
2023/09/29 16:54:18;;;;;;;11.02;2.65;;;;;;;;;;4996062;28;20034;-74
2023/09/29 16:56:44;;;;;;;10.18;2.50;;;;;;;;;;4996321;28;20042;-75
2023/09/29 16:59:09;;;;;;;8.75;2.28;;;;;;;;;;4996222;28;20382;-74
2023/09/29 17:01:34;;;;;;;15.07;3.20;;;;;;;;;;4996058;28;20105;-74
2023/09/29 17:03:59;;;;;;;10.47;3.00;;;;;;;;;;4996018;28;20489;-74
2023/09/29 17:06:25;;;;;;;11.63;3.00;;;;;;;;;;4994916;28;20032;-74
2023/09/29 17:08:50;;;;;;;8.43;2.67;;;;;;;;;;4995836;28;20026;-74
2023/09/29 17:11:17;;;;;;;9.77;2.73;;;;;;;;;;4996073;28;20268;-75
2023/09/29 17:13:43;;;;;;;10.95;2.22;;;;;;;;;;4995730;28;20283;-75
2023/09/29 17:16:09;;;;;;;8.48;2.35;;;;;;;;;;4994408;28;20018;-74
2023/09/29 17:18:34;;;;;;;6.65;1.83;;;;;;;;;;4995646;28;20106;-75
2023/09/29 17:21:01;;;;;;;9.43;2.30;;;;;;;;;;4995876;28;20175;-74
2023/09/29 17:23:26;;;;;;;8.98;1.98;;;;;;;;;;4995766;28;20283;-74
2023/09/29 17:25:51;;;;;;;7.27;2.17;;;;;;;;;;4994651;28;20069;-74
2023/09/29 17:28:16;;;;;;;14.87;2.10;;;;;;;;;;4995567;28;20264;-76
2023/09/29 17:30:42;;;;;;;11.93;2.23;;;;;;;;;;4996115;28;20244;-73
2023/09/29 17:33:07;;;;;;;9.75;2.10;;;;;;;;;;4995991;28;20307;-74
2023/09/29 17:35:32;;;;;;;6.10;2.10;;;;;;;;;;4995361;28;20110;-75
2023/09/29 17:37:58;;;;;;;7.20;1.70;;;;;;;;;;4995257;28;20042;-75
2023/09/29 17:40:23;;;;;;;6.80;1.73;;;;;;;;;;4995558;28;20260;-75
2023/09/29 17:42:48;;;;;;;7.47;1.73;;;;;;;;;;4995482;28;20023;-75
2023/09/29 17:45:13;;;;;;;5.63;2.10;;;;;;;;;;4994931;28;20054;-73
2023/09/29 17:47:39;;;;;;;8.15;1.90;;;;;;;;;;4994094;28;20268;-72
2023/09/29 17:50:04;;;;;;;6.28;1.95;;;;;;;;;;4995344;28;20381;-72
2023/09/29 17:52:30;;;;;;;8.55;1.98;;;;;;;;;;4995090;28;20029;-74
2023/09/29 17:54:55;;;;;;;9.75;2.25;;;;;;;;;;4995354;28;20347;-73
2023/09/29 17:57:21;;;;;;;8.77;1.70;;;;;;;;;;4994765;28;20025;-73
2023/09/29 17:59:46;;;;;;;8.15;2.22;;;;;;;;;;4995018;28;20097;-73
2023/09/29 18:02:12;;;;;;;7.35;1.75;;;;;;;;;;4995050;28;20057;-73
2023/09/29 18:04:37;;;;;;;11.02;2.10;;;;;;;;;;4994684;28;20437;-74
2023/09/29 18:07:04;;;;;;;8.65;2.40;;;;;;;;;;4994984;28;20033;-74
2023/09/29 18:09:30;;;;;;;10.25;2.33;;;;;;;;;;4994935;28;20053;-73
2023/09/29 18:11:55;;;;;;;8.65;2.25;;;;;;;;;;4993819;28;20030;-74
2023/09/29 18:14:20;;;;;;;10.65;2.10;;;;;;;;;;4982040;28;20396;-73
2023/09/29 18:25:22;;;;;;;7.50;1.98;;;;;;;;;;4992365;28;20236;-72
2023/09/29 18:27:48;;;;;;;10.27;2.23;;;;;;;;;;4992245;28;20018;-72
2023/09/29 18:38:48;;;;;;;9.52;1.65;;;;;;;;;;4972137;28;20073;-74
2023/09/29 18:41:18;;;;;;;9.25;1.63;;;;;;;;;;4974713;28;20019;-74
2023/09/29 18:46:47;;;;;;;8.43;1.88;;;;;;;;;;4963751;28;20049;-67